createdAt,value
2022-12-16T00:02:25.661Z,100759.81
2022-12-16T00:04:53.542Z,100756.03
2022-12-16T00:07:21.279Z,100760.56
2022-12-16T00:09:49.148Z,100764.84
2022-12-16T00:12:17.050Z,100763.25
2022-12-16T00:14:44.947Z,100767.72
2022-12-16T00:17:12.791Z,100763.78
2022-12-16T00:19:41.968Z,100767.66
2022-12-16T00:22:09.816Z,100769.41
2022-12-16T00:24:38.015Z,100766.44
2022-12-16T00:27:07.414Z,100772.94
2022-12-16T00:29:36.157Z,100789.78
2022-12-16T00:32:04.171Z,100782.31
2022-12-16T00:34:32.379Z,100785.94
2022-12-16T00:37:01.527Z,100784.81
2022-12-16T00:39:29.324Z,100790.41
2022-12-16T00:41:57.128Z,100795.50
2022-12-16T00:44:24.928Z,100799.56
2022-12-16T00:46:52.664Z,100793.47
2022-12-16T00:49:22.896Z,100796.22
2022-12-16T00:51:50.830Z,100802.63
2022-12-16T00:54:20.020Z,100796.72
2022-12-16T00:56:47.729Z,100796.75
2022-12-16T00:59:15.639Z,100788.16
2022-12-16T01:01:43.707Z,100791.78
2022-12-16T01:04:13.785Z,100791.09
2022-12-16T01:06:41.579Z,100788.88
2022-12-16T01:09:09.404Z,100783.44
2022-12-16T01:11:38.594Z,100792.72
2022-12-16T01:14:06.403Z,100782.66
2022-12-16T01:16:35.060Z,100791.47
2022-12-16T01:19:02.908Z,100796.72
2022-12-16T01:21:31.056Z,100798.38
2022-12-16T01:23:59.521Z,100811.94
2022-12-16T01:26:27.324Z,100807.53
2022-12-16T01:28:56.580Z,100807.69
2022-12-16T01:31:25.219Z,100804.28
2022-12-16T01:33:53.179Z,100809.56
2022-12-16T01:36:21.052Z,100806.72
2022-12-16T01:38:49.719Z,100809.03
2022-12-16T01:41:19.236Z,100809.66
2022-12-16T01:43:47.720Z,100800.38
2022-12-16T01:46:24.292Z,100794.28
2022-12-16T01:48:54.929Z,100806.50
2022-12-16T01:51:27.525Z,100803.59
2022-12-16T01:54:00.092Z,100801.53
2022-12-16T01:56:29.572Z,100799.25
2022-12-16T01:58:58.297Z,100806.16
2022-12-16T02:01:27.751Z,100805.13
2022-12-16T02:04:01.731Z,100796.06
2022-12-16T02:06:29.762Z,100797.31
2022-12-16T02:09:01.500Z,100795.66
2022-12-16T02:11:56.917Z,100796.22
2022-12-16T02:14:45.601Z,100797.63
2022-12-16T02:17:22.382Z,100789.34
2022-12-16T02:20:21.069Z,100799.22
2022-12-16T02:23:06.289Z,100788.28
2022-12-16T02:26:03.819Z,100803.31
2022-12-16T02:28:55.087Z,100796.25
2022-12-16T02:31:34.980Z,100799.34
2022-12-16T02:34:19.024Z,100789.81
2022-12-16T02:36:57.968Z,100790.78
2022-12-16T02:39:31.263Z,100793.63
2022-12-16T02:42:04.287Z,100793.81
2022-12-16T02:44:41.278Z,100788.84
2022-12-16T02:47:13.159Z,100781.19
2022-12-16T02:49:48.809Z,100780.63
2022-12-16T02:52:19.813Z,100784.97
2022-12-16T02:54:49.360Z,100779.25
2022-12-16T02:57:41.361Z,100791.09
2022-12-16T03:00:12.880Z,100781.44
2022-12-16T03:02:50.967Z,100785.25
2022-12-16T03:05:24.453Z,100781.69
2022-12-16T03:07:55.306Z,100779.16
2022-12-16T03:10:28.327Z,100781.84
2022-12-16T03:12:59.449Z,100779.66
2022-12-16T03:15:42.185Z,100776.94
2022-12-16T03:18:13.890Z,100769.66
2022-12-16T03:20:46.590Z,100788.66
2022-12-16T03:23:18.248Z,100783.81
2022-12-16T03:25:49.510Z,100783.72
2022-12-16T03:28:29.744Z,100774.34
2022-12-16T03:31:06.594Z,100769.31
2022-12-16T03:33:42.017Z,100760.44
2022-12-16T03:36:13.573Z,100763.84
2022-12-16T03:38:42.575Z,100762.16
2022-12-16T03:41:10.688Z,100757.13
2022-12-16T03:43:39.185Z,100755.66
2022-12-16T03:46:09.206Z,100755.72
2022-12-16T03:48:46.675Z,100752.50
2022-12-16T03:51:14.752Z,100758.38
2022-12-16T03:53:42.960Z,100759.56
2022-12-16T03:56:11.463Z,100759.47
2022-12-16T03:58:40.281Z,100755.38
2022-12-16T04:01:09.439Z,100756.59
2022-12-16T04:03:39.091Z,100759.22
2022-12-16T04:06:07.358Z,100757.31
2022-12-16T04:08:35.188Z,100759.59
2022-12-16T04:11:20.336Z,100767.19
2022-12-16T04:14:05.635Z,100764.81
2022-12-16T04:16:51.137Z,100768.94
2022-12-16T04:19:42.788Z,100773.06
2022-12-16T04:22:33.743Z,100769.41
2022-12-16T04:25:05.916Z,100778.06
2022-12-16T04:27:33.634Z,100776.84
2022-12-16T04:30:18.836Z,100776.66
2022-12-16T04:33:04.695Z,100789.75
2022-12-16T04:36:06.251Z,100788.66
2022-12-16T04:38:51.754Z,100781.47
2022-12-16T04:41:37.407Z,100792.47
2022-12-16T04:44:23.617Z,100794.00
2022-12-16T04:47:08.937Z,100791.56
2022-12-16T04:49:54.431Z,100791.09
2022-12-16T04:52:41.578Z,100795.97
2022-12-16T04:55:27.978Z,100796.25
2022-12-16T04:58:14.838Z,100794.69
2022-12-16T05:01:00.665Z,100796.38
2022-12-16T05:03:46.718Z,100794.91
2022-12-16T05:06:32.746Z,100798.75
2022-12-16T05:09:20.353Z,100806.41
2022-12-16T05:12:05.847Z,100801.38
2022-12-16T05:14:51.122Z,100802.25
2022-12-16T05:17:37.035Z,100802.47
2022-12-16T05:20:23.165Z,100807.13
2022-12-16T05:23:23.116Z,100798.28
2022-12-16T05:26:08.979Z,100805.75
2022-12-16T05:28:54.291Z,100817.97
2022-12-16T05:31:39.714Z,100815.94
2022-12-16T05:34:26.698Z,100814.63
2022-12-16T05:37:11.966Z,100815.28
2022-12-16T05:39:57.311Z,100811.59
2022-12-16T05:42:43.969Z,100811.84
2022-12-16T05:45:29.321Z,100819.06
2022-12-16T05:48:21.398Z,100814.78
2022-12-16T05:51:06.790Z,100813.50
2022-12-16T05:53:52.174Z,100823.09
2022-12-16T05:56:45.526Z,100825.09
2022-12-16T05:59:32.231Z,100827.63
2022-12-16T06:02:14.053Z,100832.06
2022-12-16T06:04:59.558Z,100832.03
2022-12-16T06:07:44.955Z,100839.22
2022-12-16T06:10:30.109Z,100851.13
2022-12-16T06:13:30.390Z,100851.94
2022-12-16T06:16:17.257Z,100849.00
2022-12-16T06:19:02.448Z,100859.66
2022-12-16T06:21:47.751Z,100863.41
2022-12-16T06:24:33.083Z,100872.34
2022-12-16T06:27:18.565Z,100881.53
2022-12-16T06:30:03.566Z,100881.81
2022-12-16T06:32:50.285Z,100890.19
2022-12-16T06:35:35.451Z,100880.38
2022-12-16T06:38:20.666Z,100887.09
2022-12-16T06:41:05.947Z,100886.78
2022-12-16T06:43:51.217Z,100898.44
2022-12-16T06:46:36.603Z,100906.72
2022-12-16T06:49:23.668Z,100904.38
2022-12-16T06:52:09.092Z,100906.09
2022-12-16T06:54:54.437Z,100905.91
2022-12-16T06:57:39.589Z,100916.31
2022-12-16T07:00:26.065Z,100913.22
2022-12-16T07:03:17.224Z,100916.59
2022-12-16T07:06:05.596Z,100917.66
2022-12-16T07:08:59.461Z,100921.78
2022-12-16T07:11:44.848Z,100937.59
2022-12-16T07:14:30.197Z,100937.50
2022-12-16T07:17:17.560Z,100940.97
2022-12-16T07:20:03.066Z,100947.38
2022-12-16T07:23:00.988Z,100952.44
2022-12-16T07:25:48.380Z,100954.06
2022-12-16T07:28:34.340Z,100958.88
2022-12-16T07:31:19.846Z,100973.31
2022-12-16T07:34:05.581Z,100981.50
2022-12-16T07:36:50.803Z,100984.59
2022-12-16T07:39:37.772Z,100993.25
2022-12-16T07:42:25.773Z,100994.53
2022-12-16T07:45:11.257Z,100992.97
2022-12-16T07:47:57.141Z,101004.22
2022-12-16T07:50:42.599Z,101006.50
2022-12-16T07:53:31.394Z,101003.09
2022-12-16T07:56:18.742Z,101006.66
2022-12-16T07:59:04.063Z,101008.44
2022-12-16T08:01:58.540Z,101017.91
2022-12-16T08:04:44.377Z,101011.22
2022-12-16T08:07:29.842Z,101023.94
2022-12-16T08:10:15.356Z,101019.06
2022-12-16T08:13:07.377Z,101026.56
2022-12-16T08:15:52.992Z,101028.44
2022-12-16T08:18:38.484Z,101038.75
2022-12-16T08:21:23.849Z,101033.28
2022-12-16T08:24:09.297Z,101029.81
2022-12-16T08:26:55.083Z,101033.72
2022-12-16T08:29:44.863Z,101034.16
2022-12-16T08:32:31.199Z,101048.75
2022-12-16T08:35:16.569Z,101050.06
2022-12-16T08:38:07.620Z,101047.53
2022-12-16T08:40:57.731Z,101045.00
2022-12-16T08:43:43.109Z,101044.81
2022-12-16T08:46:29.676Z,101039.22
2022-12-16T08:52:00.803Z,101052.47
2022-12-16T08:54:46.216Z,101043.53
2022-12-16T08:57:31.773Z,101054.53
2022-12-16T09:00:17.165Z,101047.13
2022-12-16T09:03:04.382Z,101054.78
2022-12-16T09:05:50.197Z,101054.28
2022-12-16T09:08:36.607Z,101052.38
2022-12-16T09:11:21.903Z,101055.16
2022-12-16T09:14:07.106Z,101062.16
2022-12-16T09:16:55.037Z,101058.84
2022-12-16T09:19:42.145Z,101065.44
2022-12-16T09:22:30.598Z,101073.03
2022-12-16T09:25:16.212Z,101072.75
2022-12-16T09:28:01.507Z,101078.75
2022-12-16T09:30:49.918Z,101075.38
2022-12-16T09:33:36.718Z,101072.97
2022-12-16T09:36:30.137Z,101065.97
2022-12-16T09:39:11.980Z,101066.16
2022-12-16T09:42:01.979Z,101069.47
2022-12-16T09:45:04.957Z,101069.75
2022-12-16T09:47:57.782Z,101067.81
2022-12-16T09:50:49.004Z,101061.69
2022-12-16T09:53:39.140Z,101056.78
2022-12-16T09:56:32.642Z,101059.31
2022-12-16T09:59:21.530Z,101054.53
2022-12-16T10:02:09.301Z,101052.16
2022-12-16T10:04:54.577Z,101056.34
2022-12-16T10:07:50.328Z,101060.47
2022-12-16T10:10:48.029Z,101056.06
2022-12-16T10:13:41.525Z,101049.81
2022-12-16T10:16:36.387Z,101053.03
2022-12-16T10:19:35.926Z,101055.00
2022-12-16T10:22:31.236Z,101047.53
2022-12-16T10:25:25.186Z,101040.53
2022-12-16T10:28:21.271Z,101048.44
2022-12-16T10:31:06.707Z,101046.31
2022-12-16T10:33:52.214Z,101044.38
2022-12-16T10:36:41.208Z,101050.09
2022-12-16T10:39:42.542Z,101047.63
2022-12-16T10:42:39.129Z,101045.53
2022-12-16T10:45:35.841Z,101046.28
2022-12-16T10:48:21.693Z,101051.25
2022-12-16T10:51:07.019Z,101042.47
2022-12-16T10:53:52.845Z,101053.75
2022-12-16T10:56:55.819Z,101059.94
2022-12-16T10:59:54.177Z,101060.56
2022-12-16T11:02:44.289Z,101060.09
2022-12-16T11:05:48.196Z,101066.56
2022-12-16T11:08:45.372Z,101064.22
2022-12-16T11:11:40.652Z,101056.47
2022-12-16T11:14:39.325Z,101059.53
2022-12-16T11:17:34.192Z,101062.09
2022-12-16T11:20:37.579Z,101068.09
2022-12-16T11:23:47.233Z,101062.28
2022-12-16T11:26:37.219Z,101054.00
2022-12-16T11:29:32.481Z,101065.47
2022-12-16T11:32:23.943Z,101059.09
2022-12-16T11:35:13.214Z,101059.28
2022-12-16T11:38:07.627Z,101068.66
2022-12-16T11:41:00.432Z,101073.13
2022-12-16T11:43:48.801Z,101071.88
2022-12-16T11:46:40.205Z,101070.81
2022-12-16T11:49:32.939Z,101079.25
2022-12-16T11:52:36.443Z,101079.59
2022-12-16T11:56:04.531Z,101078.41
2022-12-16T11:58:50.148Z,101076.69
2022-12-16T12:01:45.580Z,101078.81
2022-12-16T12:04:32.273Z,101077.03
2022-12-16T12:07:44.970Z,101069.28
2022-12-16T12:10:49.714Z,101078.31
2022-12-16T12:13:56.393Z,101080.00
2022-12-16T12:16:50.033Z,101080.91
2022-12-16T12:19:39.288Z,101087.50
2022-12-16T12:22:36.350Z,101083.59
2022-12-16T12:25:28.837Z,101090.13
2022-12-16T12:28:23.747Z,101084.41
2022-12-16T12:31:23.133Z,101087.47
2022-12-16T12:34:19.238Z,101094.75
2022-12-16T12:37:12.205Z,101095.69
2022-12-16T12:40:04.995Z,101094.50
2022-12-16T12:42:56.730Z,101100.91
2022-12-16T12:46:03.206Z,101102.41
2022-12-16T12:48:57.790Z,101103.34
2022-12-16T12:51:49.697Z,101102.47
2022-12-16T12:54:44.176Z,101099.91
2022-12-16T12:57:33.790Z,101104.97
2022-12-16T13:00:22.096Z,101111.72
2022-12-16T13:03:20.911Z,101114.88
2022-12-16T13:06:07.081Z,101115.69
2022-12-16T13:09:15.581Z,101122.81
2022-12-16T13:12:34.641Z,101128.19
2022-12-16T13:15:24.476Z,101126.13
2022-12-16T13:18:49.718Z,101134.56
2022-12-16T13:22:07.039Z,101127.66
2022-12-16T13:25:05.025Z,101138.22
2022-12-16T13:28:12.178Z,101136.41
2022-12-16T13:30:59.876Z,101142.31
2022-12-16T13:33:47.856Z,101138.97
2022-12-16T13:36:37.268Z,101147.78
2022-12-16T13:39:41.176Z,101140.78
2022-12-16T13:43:05.087Z,101156.47
2022-12-16T13:45:54.293Z,101154.16
2022-12-16T13:48:56.518Z,101158.63
2022-12-16T13:52:24.200Z,101168.41
2022-12-16T13:55:32.369Z,101164.19
2022-12-16T13:58:23.781Z,101171.56
2022-12-16T14:01:23.193Z,101178.53
2022-12-16T14:04:10.974Z,101185.69
2022-12-16T14:07:02.136Z,101179.34
2022-12-16T14:09:52.490Z,101187.75
2022-12-16T14:13:03.848Z,101198.28
2022-12-16T14:15:56.567Z,101198.66
2022-12-16T14:18:52.729Z,101194.59
2022-12-16T14:21:45.698Z,101198.50
2022-12-16T14:24:46.317Z,101197.88
2022-12-16T14:27:37.713Z,101208.84
2022-12-16T14:30:35.691Z,101208.84
2022-12-16T14:33:35.189Z,101216.28
2022-12-16T14:36:20.655Z,101218.81
2022-12-16T14:39:08.091Z,101219.28
2022-12-16T14:41:53.684Z,101225.00
2022-12-16T14:44:41.331Z,101233.22
2022-12-16T14:47:35.865Z,101240.66
2022-12-16T14:50:21.854Z,101233.75
2022-12-16T14:53:07.265Z,101231.28
2022-12-16T14:55:53.838Z,101238.44
2022-12-16T14:58:41.701Z,101235.34
2022-12-16T15:01:44.545Z,101242.69
2022-12-16T15:04:40.175Z,101242.19
2022-12-16T15:07:31.532Z,101247.28
2022-12-16T15:10:18.442Z,101257.94
2022-12-16T15:13:06.917Z,101255.38
2022-12-16T15:15:55.926Z,101260.47
2022-12-16T15:19:02.614Z,101263.22
2022-12-16T15:22:03.651Z,101270.09
2022-12-16T15:25:04.172Z,101271.03
2022-12-16T15:27:54.761Z,101275.56
2022-12-16T15:30:56.856Z,101280.66
2022-12-16T15:33:45.140Z,101277.06
2022-12-16T15:36:42.437Z,101285.94
2022-12-16T15:39:36.254Z,101285.25
2022-12-16T15:42:22.238Z,101296.34
2022-12-16T15:45:09.741Z,101296.94
2022-12-16T15:47:57.403Z,101306.69
2022-12-16T15:50:45.503Z,101308.47
2022-12-16T15:53:36.298Z,101303.31
2022-12-16T15:56:23.827Z,101311.63
2022-12-16T15:59:09.524Z,101310.47
2022-12-16T16:02:05.099Z,101320.38
2022-12-16T16:04:50.825Z,101312.28
2022-12-16T16:07:38.633Z,101317.69
2022-12-16T16:10:34.772Z,101324.03
2022-12-16T16:13:21.733Z,101322.78
2022-12-16T16:16:10.613Z,101329.03
2022-12-16T16:18:59.001Z,101328.09
2022-12-16T16:21:44.654Z,101335.88
2022-12-16T16:24:31.407Z,101337.94
2022-12-16T16:27:19.765Z,101334.09
2022-12-16T16:30:08.350Z,101338.31
2022-12-16T16:32:53.719Z,101343.97
2022-12-16T16:35:39.352Z,101353.84
2022-12-16T16:38:24.678Z,101356.53
2022-12-16T16:41:20.687Z,101352.34
2022-12-16T16:44:06.187Z,101348.50
2022-12-16T16:46:55.492Z,101353.91
2022-12-16T16:49:47.129Z,101352.56
2022-12-16T16:52:34.303Z,101355.09
2022-12-16T16:55:19.590Z,101361.41
2022-12-16T16:58:04.999Z,101357.25
2022-12-16T17:00:50.701Z,101354.41
2022-12-16T17:03:38.393Z,101366.19
2022-12-16T17:06:24.735Z,101361.09
2022-12-16T17:09:10.130Z,101362.06
2022-12-16T17:12:11.674Z,101365.78
2022-12-16T17:14:53.517Z,101366.81
2022-12-16T17:17:38.618Z,101368.38
2022-12-16T17:20:36.679Z,101365.06
2022-12-16T17:23:22.012Z,101366.56
2022-12-16T17:26:08.566Z,101371.91
2022-12-16T17:28:53.921Z,101380.59
2022-12-16T17:31:39.588Z,101380.91
2022-12-16T17:34:25.202Z,101384.19
2022-12-16T17:37:11.540Z,101393.34
2022-12-16T17:40:11.566Z,101387.34
2022-12-16T17:42:56.867Z,101392.88
2022-12-16T17:45:42.351Z,101393.81
2022-12-16T17:48:27.711Z,101393.22
2022-12-16T17:51:13.100Z,101402.78
2022-12-16T17:54:02.115Z,101399.97
2022-12-16T17:56:51.307Z,101409.81
2022-12-16T17:59:36.300Z,101412.81
2022-12-16T18:02:21.819Z,101409.41
2022-12-16T18:05:07.250Z,101410.28
2022-12-16T18:07:53.074Z,101405.84
2022-12-16T18:10:43.196Z,101410.59
2022-12-16T18:13:28.550Z,101423.75
2022-12-16T18:16:14.112Z,101424.81
2022-12-16T18:18:59.620Z,101422.56
2022-12-16T18:21:44.988Z,101428.25
2022-12-16T18:24:31.729Z,101428.84
2022-12-16T18:27:19.570Z,101429.13
2022-12-16T18:30:04.797Z,101433.47
2022-12-16T18:32:51.410Z,101435.09
2022-12-16T18:35:36.814Z,101436.31
2022-12-16T18:38:22.435Z,101433.59
2022-12-16T18:41:09.968Z,101437.03
2022-12-16T18:43:57.379Z,101441.56
2022-12-16T18:46:42.405Z,101446.78
2022-12-16T18:49:42.452Z,101455.78
2022-12-16T18:52:27.651Z,101453.25
2022-12-16T18:55:15.629Z,101458.19
2022-12-16T18:58:02.343Z,101465.53
2022-12-16T19:00:49.292Z,101464.47
2022-12-16T19:03:34.670Z,101468.06
2022-12-16T19:06:19.757Z,101469.13
2022-12-16T19:09:13.424Z,101458.16
2022-12-16T19:11:58.795Z,101460.88
2022-12-16T19:14:50.518Z,101464.59
2022-12-16T19:17:37.613Z,101463.88
2022-12-16T19:20:25.475Z,101469.84
2022-12-16T19:23:14.033Z,101474.50
2022-12-16T19:25:59.674Z,101484.50
2022-12-16T19:28:45.107Z,101477.03
2022-12-16T19:31:32.816Z,101489.59
2022-12-16T19:34:19.827Z,101489.47
2022-12-16T19:37:06.333Z,101491.69
2022-12-16T19:39:51.958Z,101486.63
2022-12-16T19:42:36.546Z,101489.47
2022-12-16T19:45:23.859Z,101494.84
2022-12-16T19:48:19.047Z,101503.69
2022-12-16T19:51:05.903Z,101503.09
2022-12-16T19:53:51.264Z,101505.63
2022-12-16T19:56:40.071Z,101508.31
2022-12-16T19:59:33.957Z,101507.84
2022-12-16T20:02:18.825Z,101511.44
2022-12-16T20:05:05.734Z,101517.28
2022-12-16T20:07:52.939Z,101518.66
2022-12-16T20:10:41.741Z,101519.56
2022-12-16T20:13:30.083Z,101523.13
2022-12-16T20:16:25.313Z,101530.47
2022-12-16T20:19:10.666Z,101536.31
2022-12-16T20:21:57.529Z,101540.34
2022-12-16T20:24:45.939Z,101538.13
2022-12-16T20:27:31.904Z,101545.28
2022-12-16T20:30:17.247Z,101547.69
2022-12-16T20:33:09.289Z,101554.28
2022-12-16T20:36:06.162Z,101555.47
2022-12-16T20:38:53.431Z,101561.00
2022-12-16T20:41:44.380Z,101553.69
2022-12-16T20:44:29.883Z,101555.78
2022-12-16T20:47:18.411Z,101562.66
2022-12-16T20:50:04.388Z,101561.59
2022-12-16T20:52:49.678Z,101559.81
2022-12-16T20:55:35.004Z,101560.72
2022-12-16T20:58:18.416Z,101569.84
2022-12-16T21:01:03.761Z,101561.16
2022-12-16T21:03:49.287Z,101560.41
2022-12-16T21:06:34.693Z,101574.50
2022-12-16T21:09:23.204Z,101574.19
2022-12-16T21:12:08.956Z,101575.84
2022-12-16T21:14:55.635Z,101582.75
2022-12-16T21:17:44.889Z,101583.03
2022-12-16T21:20:30.302Z,101590.97
2022-12-16T21:23:19.172Z,101591.72
2022-12-16T21:26:04.579Z,101593.81
2022-12-16T21:28:50.036Z,101598.16
2022-12-16T21:31:37.103Z,101601.59
2022-12-16T21:34:23.094Z,101600.41
2022-12-16T21:37:09.357Z,101601.91
2022-12-16T21:39:54.810Z,101593.50
2022-12-16T21:42:44.421Z,101603.09
2022-12-16T21:45:30.183Z,101614.19
2022-12-16T21:48:16.851Z,101600.69
2022-12-16T21:51:02.456Z,101614.75
2022-12-16T21:53:48.833Z,101614.91
2022-12-16T21:56:57.472Z,101623.16
2022-12-16T21:59:48.532Z,101621.50
2022-12-16T22:02:46.188Z,101627.97
2022-12-16T22:05:33.106Z,101624.06
2022-12-16T22:08:27.395Z,101624.97
2022-12-16T22:11:12.820Z,101629.75
2022-12-16T22:13:58.156Z,101630.06
2022-12-16T22:16:45.922Z,101623.75
2022-12-16T22:19:31.165Z,101621.97
2022-12-16T22:22:18.041Z,101628.25
2022-12-16T22:25:03.663Z,101631.84
2022-12-16T22:27:49.215Z,101636.94
2022-12-16T22:30:35.679Z,101637.84
2022-12-16T22:33:20.972Z,101639.03
2022-12-16T22:36:08.710Z,101637.84
2022-12-16T22:38:56.489Z,101643.84
2022-12-16T22:41:41.691Z,101647.44
2022-12-16T22:44:27.141Z,101645.03
2022-12-16T22:47:17.916Z,101656.44
2022-12-16T22:50:03.379Z,101649.97
2022-12-16T22:52:48.882Z,101655.84
2022-12-16T22:55:34.519Z,101657.03
2022-12-16T22:58:25.653Z,101658.53
2022-12-16T23:01:12.388Z,101664.09
2022-12-16T23:04:06.249Z,101661.38
2022-12-16T23:06:51.997Z,101665.25
2022-12-16T23:09:37.639Z,101665.69
2022-12-16T23:12:24.866Z,101664.09
2022-12-16T23:15:15.262Z,101669.88
2022-12-16T23:18:00.721Z,101663.31
2022-12-16T23:20:46.603Z,101659.72
2022-12-16T23:23:31.927Z,101666.03
2022-12-16T23:26:19.413Z,101665.69
2022-12-16T23:29:09.605Z,101667.81
2022-12-16T23:31:56.597Z,101663.03
2022-12-16T23:34:56.648Z,101667.38
2022-12-16T23:37:42.114Z,101660.78
2022-12-16T23:40:28.611Z,101668.13
2022-12-16T23:43:13.985Z,101671.69
2022-12-16T23:46:01.780Z,101671.84
2022-12-16T23:48:47.049Z,101677.69
2022-12-16T23:51:32.609Z,101668.25
2022-12-16T23:54:17.528Z,101674.72
2022-12-16T23:57:03.080Z,101676.50
2022-12-16T23:59:48.268Z,101678.31
